Portada
METAR-TAF:

METAR-TAF

Aeroports :

Aeroport de Sabadell

Sabadell, Espanya

latitud: 41-31N, longitud: 002-06E, altitud: 250 m

Observació

L'informe es va fer fa 18 minuts, a les 11:30 UTC
Vent 7 kt del Oest/Sud-Oest, variant entre Sud/Sud-Oest i Oest
Temperatura 13°C
Humitat 62%
Pressió 1007 hPa
Visibilitat 10 km o més
sense núvols per sota de 1500 mi sense presència de cumulonimbus.

METAR: LELL 211130Z 24007KT 210V280 CAVOK 13/06 Q1007

Hora: 12:48 (11:48 UTC)

Pronòstic

L'informe es va fer fa 3 hores i 48 minuts, a les 08:00 UTC
Pronòstic vàlid del 21 a les 09 UTC al 22 a les 09 UTC
Vent 3 kt amb direcció variable
Visibilitat 10 km o més
Núvols disperses a una alçada de 4000 ft
Evolucionant progressivament
l' 21 a les 09 UTC al 21 a les 11 UTC
Vent 10 kt del Oest
Evolucionant progressivament
l' 21 a les 22 UTC al 21 a les 24 UTC
Vent 2 kt amb direcció variable

TAF: LELL 210800Z 2109/2209 VRB03KT 9999 SCT040 TX15/2113Z TN04/2207Z BECMG 2109/2111 27010KT BECMG 2122/2124 VRB02KT

Observacions i pronòstics meteorològics de més de 4000 aeroports (METAR i TAF).

Les estacions disponibles són els punts grocs i vermells al mapa.

Posi el ratolí al punt desitjat per veure el nom de l'estació.

Feu clic per veure les observacions i els pronòstics meteorològics.

Per canviar el mapa: feu clic els botons verds amb una creu de color negre per apropar; al botó verd amb un guió per allunyar la imatge; o en les fletxes verdes per a mapes adjacents.


METAR-TAF: